sensor_id;sensor_type;location;lat;lon;timestamp;P1;durP1;ratioP1;P2;durP2;ratioP2
60336;SDS011;46978;50.288;28.624;2023-03-23T00:00:38;22.22;;;12.86;;
60336;SDS011;46978;50.288;28.624;2023-03-23T00:01:40;21.85;;;13.30;;
60336;SDS011;46978;50.288;28.624;2023-03-23T00:02:42;22.09;;;12.91;;
60336;SDS011;46978;50.288;28.624;2023-03-23T00:03:44;20.11;;;12.33;;
60336;SDS011;46978;50.288;28.624;2023-03-23T00:04:47;20.47;;;12.04;;
60336;SDS011;46978;50.288;28.624;2023-03-23T00:05:51;19.51;;;11.91;;
60336;SDS011;46978;50.288;28.624;2023-03-23T00:06:52;18.11;;;12.45;;
60336;SDS011;46978;50.288;28.624;2023-03-23T00:07:54;19.29;;;12.13;;
60336;SDS011;46978;50.288;28.624;2023-03-23T00:08:56;19.59;;;12.64;;
60336;SDS011;46978;50.288;28.624;2023-03-23T00:09:58;23.09;;;12.11;;
60336;SDS011;46978;50.288;28.624;2023-03-23T00:10:59;23.66;;;13.09;;
60336;SDS011;46978;50.288;28.624;2023-03-23T00:12:01;21.01;;;13.31;;
60336;SDS011;46978;50.288;28.624;2023-03-23T00:13:03;21.41;;;12.73;;
60336;SDS011;46978;50.288;28.624;2023-03-23T00:14:04;21.14;;;12.22;;
60336;SDS011;46978;50.288;28.624;2023-03-23T00:15:07;20.47;;;12.80;;
60336;SDS011;46978;50.288;28.624;2023-03-23T00:16:11;20.08;;;12.06;;
60336;SDS011;46978;50.288;28.624;2023-03-23T00:17:14;20.05;;;12.45;;
60336;SDS011;46978;50.288;28.624;2023-03-23T00:18:16;20.70;;;12.29;;
60336;SDS011;46978;50.288;28.624;2023-03-23T00:19:19;19.52;;;12.01;;
60336;SDS011;46978;50.288;28.624;2023-03-23T00:20:21;19.70;;;12.27;;
60336;SDS011;46978;50.288;28.624;2023-03-23T00:21:23;19.25;;;12.15;;
60336;SDS011;46978;50.288;28.624;2023-03-23T00:22:27;19.77;;;11.94;;
60336;SDS011;46978;50.288;28.624;2023-03-23T00:23:29;18.93;;;11.54;;
60336;SDS011;46978;50.288;28.624;2023-03-23T00:24:31;22.61;;;12.07;;
60336;SDS011;46978;50.288;28.624;2023-03-23T00:25:33;19.04;;;10.98;;
60336;SDS011;46978;50.288;28.624;2023-03-23T00:26:35;19.15;;;10.95;;
60336;SDS011;46978;50.288;28.624;2023-03-23T00:27:39;20.09;;;11.50;;
60336;SDS011;46978;50.288;28.624;2023-03-23T00:28:40;18.37;;;11.01;;
60336;SDS011;46978;50.288;28.624;2023-03-23T00:29:45;18.73;;;12.02;;
60336;SDS011;46978;50.288;28.624;2023-03-23T00:30:47;18.76;;;10.74;;
60336;SDS011;46978;50.288;28.624;2023-03-23T00:31:49;16.74;;;10.64;;
60336;SDS011;46978;50.288;28.624;2023-03-23T00:32:51;18.23;;;10.73;;
60336;SDS011;46978;50.288;28.624;2023-03-23T00:33:52;17.11;;;10.95;;
60336;SDS011;46978;50.288;28.624;2023-03-23T00:34:54;19.34;;;10.89;;
60336;SDS011;46978;50.288;28.624;2023-03-23T00:35:57;18.51;;;11.28;;
60336;SDS011;46978;50.288;28.624;2023-03-23T00:36:59;17.97;;;10.94;;
60336;SDS011;46978;50.288;28.624;2023-03-23T00:38:01;18.51;;;11.41;;
60336;SDS011;46978;50.288;28.624;2023-03-23T00:39:04;18.68;;;11.70;;
60336;SDS011;46978;50.288;28.624;2023-03-23T00:40:06;15.87;;;10.14;;
60336;SDS011;46978;50.288;28.624;2023-03-23T00:41:09;18.51;;;11.27;;
60336;SDS011;46978;50.288;28.624;2023-03-23T00:42:11;17.77;;;10.89;;
60336;SDS011;46978;50.288;28.624;2023-03-23T00:43:15;19.21;;;11.57;;
60336;SDS011;46978;50.288;28.624;2023-03-23T00:44:19;17.97;;;10.90;;
60336;SDS011;46978;50.288;28.624;2023-03-23T00:45:20;16.85;;;11.19;;
60336;SDS011;46978;50.288;28.624;2023-03-23T00:46:22;17.07;;;10.34;;
60336;SDS011;46978;50.288;28.624;2023-03-23T00:47:25;17.64;;;10.99;;
60336;SDS011;46978;50.288;28.624;2023-03-23T00:48:28;18.87;;;11.55;;
60336;SDS011;46978;50.288;28.624;2023-03-23T00:49:30;17.83;;;11.01;;
60336;SDS011;46978;50.288;28.624;2023-03-23T00:50:32;18.29;;;11.34;;
60336;SDS011;46978;50.288;28.624;2023-03-23T00:51:33;17.00;;;10.99;;
60336;SDS011;46978;50.288;28.624;2023-03-23T00:52:35;15.73;;;10.28;;
60336;SDS011;46978;50.288;28.624;2023-03-23T00:53:41;17.51;;;10.52;;
60336;SDS011;46978;50.288;28.624;2023-03-23T00:54:41;18.26;;;11.44;;
60336;SDS011;46978;50.288;28.624;2023-03-23T00:55:44;18.37;;;11.25;;
60336;SDS011;46978;50.288;28.624;2023-03-23T00:56:47;17.11;;;11.02;;
60336;SDS011;46978;50.288;28.624;2023-03-23T00:57:49;17.01;;;10.82;;
60336;SDS011;46978;50.288;28.624;2023-03-23T00:58:50;19.07;;;11.40;;
60336;SDS011;46978;50.288;28.624;2023-03-23T00:59:54;17.80;;;11.57;;
60336;SDS011;46978;50.288;28.624;2023-03-23T01:00:57;17.45;;;11.00;;
60336;SDS011;46978;50.288;28.624;2023-03-23T01:01:59;18.19;;;11.63;;
60336;SDS011;46978;50.288;28.624;2023-03-23T01:03:00;17.64;;;11.52;;
60336;SDS011;46978;50.288;28.624;2023-03-23T01:04:02;18.05;;;11.24;;
60336;SDS011;46978;50.288;28.624;2023-03-23T01:05:05;19.59;;;11.49;;
60336;SDS011;46978;50.288;28.624;2023-03-23T01:06:10;19.91;;;12.28;;
60336;SDS011;46978;50.288;28.624;2023-03-23T01:07:12;18.83;;;11.73;;
60336;SDS011;46978;50.288;28.624;2023-03-23T01:08:15;18.77;;;11.56;;
60336;SDS011;46978;50.288;28.624;2023-03-23T01:09:17;20.09;;;11.84;;
60336;SDS011;46978;50.288;28.624;2023-03-23T01:10:19;17.97;;;11.10;;
60336;SDS011;46978;50.288;28.624;2023-03-23T01:11:21;19.84;;;11.61;;
60336;SDS011;46978;50.288;28.624;2023-03-23T01:12:24;20.12;;;12.37;;
60336;SDS011;46978;50.288;28.624;2023-03-23T01:13:25;19.33;;;11.57;;
60336;SDS011;46978;50.288;28.624;2023-03-23T01:14:27;19.83;;;11.76;;
60336;SDS011;46978;50.288;28.624;2023-03-23T01:15:30;17.85;;;11.61;;
60336;SDS011;46978;50.288;28.624;2023-03-23T01:16:34;18.26;;;11.92;;
60336;SDS011;46978;50.288;28.624;2023-03-23T01:17:36;19.09;;;12.14;;
60336;SDS011;46978;50.288;28.624;2023-03-23T01:18:38;18.61;;;12.03;;
60336;SDS011;46978;50.288;28.624;2023-03-23T01:19:40;19.70;;;11.90;;
60336;SDS011;46978;50.288;28.624;2023-03-23T01:20:44;19.06;;;11.74;;
60336;SDS011;46978;50.288;28.624;2023-03-23T01:21:47;17.37;;;11.16;;
60336;SDS011;46978;50.288;28.624;2023-03-23T01:22:49;18.17;;;11.52;;
60336;SDS011;46978;50.288;28.624;2023-03-23T01:23:51;18.30;;;10.75;;
60336;SDS011;46978;50.288;28.624;2023-03-23T01:24:53;17.85;;;11.48;;
60336;SDS011;46978;50.288;28.624;2023-03-23T01:25:56;21.07;;;11.59;;
60336;SDS011;46978;50.288;28.624;2023-03-23T01:26:58;18.69;;;11.23;;
60336;SDS011;46978;50.288;28.624;2023-03-23T01:28:00;21.66;;;11.85;;
60336;SDS011;46978;50.288;28.624;2023-03-23T01:29:03;16.59;;;11.54;;
60336;SDS011;46978;50.288;28.624;2023-03-23T01:30:05;20.16;;;11.44;;
60336;SDS011;46978;50.288;28.624;2023-03-23T01:31:11;19.04;;;11.83;;
60336;SDS011;46978;50.288;28.624;2023-03-23T01:32:15;17.09;;;11.31;;
60336;SDS011;46978;50.288;28.624;2023-03-23T01:33:16;17.52;;;11.30;;
60336;SDS011;46978;50.288;28.624;2023-03-23T01:34:18;18.55;;;11.01;;
60336;SDS011;46978;50.288;28.624;2023-03-23T01:35:19;18.74;;;10.74;;
60336;SDS011;46978;50.288;28.624;2023-03-23T01:36:27;17.11;;;10.39;;
60336;SDS011;46978;50.288;28.624;2023-03-23T01:37:27;18.43;;;11.44;;
60336;SDS011;46978;50.288;28.624;2023-03-23T01:38:29;19.25;;;11.42;;
60336;SDS011;46978;50.288;28.624;2023-03-23T01:39:31;18.11;;;10.29;;
60336;SDS011;46978;50.288;28.624;2023-03-23T01:40:33;18.12;;;11.20;;
60336;SDS011;46978;50.288;28.624;2023-03-23T01:41:35;18.44;;;10.90;;
60336;SDS011;46978;50.288;28.624;2023-03-23T01:42:38;17.44;;;10.71;;
60336;SDS011;46978;50.288;28.624;2023-03-23T01:46:31;17.80;;;10.48;;
60336;SDS011;46978;50.288;28.624;2023-03-23T01:47:34;17.92;;;10.49;;
60336;SDS011;46978;50.288;28.624;2023-03-23T01:48:36;17.69;;;10.66;;
60336;SDS011;46978;50.288;28.624;2023-03-23T01:49:41;17.28;;;10.51;;
60336;SDS011;46978;50.288;28.624;2023-03-23T01:50:49;20.26;;;11.28;;
60336;SDS011;46978;50.288;28.624;2023-03-23T01:51:59;18.54;;;10.86;;
60336;SDS011;46978;50.288;28.624;2023-03-23T01:53:04;17.61;;;10.74;;
60336;SDS011;46978;50.288;28.624;2023-03-23T01:54:10;19.58;;;10.81;;
60336;SDS011;46978;50.288;28.624;2023-03-23T01:55:14;16.99;;;10.51;;
60336;SDS011;46978;50.288;28.624;2023-03-23T01:56:17;19.59;;;11.67;;
60336;SDS011;46978;50.288;28.624;2023-03-23T01:57:22;17.01;;;11.04;;
60336;SDS011;46978;50.288;28.624;2023-03-23T01:58:27;17.37;;;10.42;;
60336;SDS011;46978;50.288;28.624;2023-03-23T01:59:32;16.29;;;10.89;;
60336;SDS011;46978;50.288;28.624;2023-03-23T02:00:36;17.28;;;10.64;;
60336;SDS011;46978;50.288;28.624;2023-03-23T02:01:59;16.76;;;10.50;;
60336;SDS011;46978;50.288;28.624;2023-03-23T02:03:01;15.21;;;9.98;;
60336;SDS011;46978;50.288;28.624;2023-03-23T02:04:03;15.78;;;10.26;;
60336;SDS011;46978;50.288;28.624;2023-03-23T02:05:08;17.47;;;10.66;;
60336;SDS011;46978;50.288;28.624;2023-03-23T02:06:12;16.71;;;9.64;;
60336;SDS011;46978;50.288;28.624;2023-03-23T02:07:14;16.29;;;10.11;;
60336;SDS011;46978;50.288;28.624;2023-03-23T02:08:18;14.82;;;9.64;;
60336;SDS011;46978;50.288;28.624;2023-03-23T02:09:21;15.98;;;9.35;;
60336;SDS011;46978;50.288;28.624;2023-03-23T02:10:23;15.81;;;9.89;;
60336;SDS011;46978;50.288;28.624;2023-03-23T02:11:27;15.97;;;9.47;;
60336;SDS011;46978;50.288;28.624;2023-03-23T02:12:30;17.23;;;9.89;;
60336;SDS011;46978;50.288;28.624;2023-03-23T02:13:31;15.90;;;9.34;;
60336;SDS011;46978;50.288;28.624;2023-03-23T02:14:34;16.79;;;9.31;;
60336;SDS011;46978;50.288;28.624;2023-03-23T02:17:03;16.34;;;9.85;;
60336;SDS011;46978;50.288;28.624;2023-03-23T02:18:19;14.73;;;9.17;;
60336;SDS011;46978;50.288;28.624;2023-03-23T02:27:25;16.05;;;9.37;;
60336;SDS011;46978;50.288;28.624;2023-03-23T02:35:04;16.13;;;10.19;;
60336;SDS011;46978;50.288;28.624;2023-03-23T02:36:16;15.08;;;9.46;;
60336;SDS011;46978;50.288;28.624;2023-03-23T02:37:38;14.32;;;8.54;;
60336;SDS011;46978;50.288;28.624;2023-03-23T02:40:26;14.91;;;9.53;;
60336;SDS011;46978;50.288;28.624;2023-03-23T02:41:37;14.73;;;8.95;;
60336;SDS011;46978;50.288;28.624;2023-03-23T02:42:46;16.22;;;9.98;;
60336;SDS011;46978;50.288;28.624;2023-03-23T02:43:50;16.03;;;9.92;;
60336;SDS011;46978;50.288;28.624;2023-03-23T02:44:52;15.74;;;10.11;;
60336;SDS011;46978;50.288;28.624;2023-03-23T02:46:08;18.03;;;11.83;;
60336;SDS011;46978;50.288;28.624;2023-03-23T02:47:14;19.18;;;11.98;;
60336;SDS011;46978;50.288;28.624;2023-03-23T02:48:18;17.66;;;10.72;;
60336;SDS011;46978;50.288;28.624;2023-03-23T02:49:23;17.46;;;11.42;;
60336;SDS011;46978;50.288;28.624;2023-03-23T02:50:28;17.08;;;11.29;;
60336;SDS011;46978;50.288;28.624;2023-03-23T02:51:33;18.36;;;11.32;;
60336;SDS011;46978;50.288;28.624;2023-03-23T02:52:36;18.74;;;11.57;;
60336;SDS011;46978;50.288;28.624;2023-03-23T02:53:41;17.57;;;11.12;;
60336;SDS011;46978;50.288;28.624;2023-03-23T02:54:44;15.77;;;9.91;;
60336;SDS011;46978;50.288;28.624;2023-03-23T02:55:49;18.94;;;11.38;;
60336;SDS011;46978;50.288;28.624;2023-03-23T02:56:53;18.40;;;10.77;;
60336;SDS011;46978;50.288;28.624;2023-03-23T02:57:57;20.88;;;11.22;;
60336;SDS011;46978;50.288;28.624;2023-03-23T02:58:58;19.14;;;11.39;;
60336;SDS011;46978;50.288;28.624;2023-03-23T03:00:04;17.40;;;10.62;;
60336;SDS011;46978;50.288;28.624;2023-03-23T03:01:14;15.18;;;10.15;;
60336;SDS011;46978;50.288;28.624;2023-03-23T03:02:32;16.68;;;10.84;;
60336;SDS011;46978;50.288;28.624;2023-03-23T03:03:36;18.11;;;10.47;;
60336;SDS011;46978;50.288;28.624;2023-03-23T03:04:38;17.94;;;10.57;;
60336;SDS011;46978;50.288;28.624;2023-03-23T03:07:31;18.78;;;10.42;;
60336;SDS011;46978;50.288;28.624;2023-03-23T03:10:00;17.36;;;10.18;;
60336;SDS011;46978;50.288;28.624;2023-03-23T03:11:05;17.00;;;10.44;;
60336;SDS011;46978;50.288;28.624;2023-03-23T03:12:16;23.59;;;11.67;;
60336;SDS011;46978;50.288;28.624;2023-03-23T03:13:37;20.62;;;11.37;;
60336;SDS011;46978;50.288;28.624;2023-03-23T03:15:02;19.14;;;10.64;;
60336;SDS011;46978;50.288;28.624;2023-03-23T03:17:12;16.45;;;10.43;;
60336;SDS011;46978;50.288;28.624;2023-03-23T03:18:20;16.51;;;10.31;;
60336;SDS011;46978;50.288;28.624;2023-03-23T03:19:29;18.16;;;10.95;;
60336;SDS011;46978;50.288;28.624;2023-03-23T03:20:29;16.59;;;10.59;;
60336;SDS011;46978;50.288;28.624;2023-03-23T03:21:35;16.16;;;10.26;;
60336;SDS011;46978;50.288;28.624;2023-03-23T03:22:39;15.74;;;10.01;;
60336;SDS011;46978;50.288;28.624;2023-03-23T03:23:44;16.48;;;10.16;;
60336;SDS011;46978;50.288;28.624;2023-03-23T03:24:48;15.81;;;10.21;;
60336;SDS011;46978;50.288;28.624;2023-03-23T03:25:52;14.99;;;9.80;;
60336;SDS011;46978;50.288;28.624;2023-03-23T03:26:56;14.35;;;9.79;;
60336;SDS011;46978;50.288;28.624;2023-03-23T03:28:01;14.99;;;9.52;;
60336;SDS011;46978;50.288;28.624;2023-03-23T03:29:04;17.16;;;10.06;;
60336;SDS011;46978;50.288;28.624;2023-03-23T03:30:09;15.76;;;9.44;;
60336;SDS011;46978;50.288;28.624;2023-03-23T03:31:15;16.00;;;10.02;;
60336;SDS011;46978;50.288;28.624;2023-03-23T03:32:23;14.71;;;9.71;;
60336;SDS011;46978;50.288;28.624;2023-03-23T03:33:28;15.40;;;10.14;;
60336;SDS011;46978;50.288;28.624;2023-03-23T03:34:32;17.40;;;9.76;;
60336;SDS011;46978;50.288;28.624;2023-03-23T03:35:35;17.07;;;9.99;;
60336;SDS011;46978;50.288;28.624;2023-03-23T03:36:39;15.14;;;9.85;;
60336;SDS011;46978;50.288;28.624;2023-03-23T03:37:42;14.81;;;9.99;;
60336;SDS011;46978;50.288;28.624;2023-03-23T03:38:45;15.94;;;10.91;;
60336;SDS011;46978;50.288;28.624;2023-03-23T03:39:48;16.91;;;10.46;;
60336;SDS011;46978;50.288;28.624;2023-03-23T03:40:50;15.71;;;9.57;;
60336;SDS011;46978;50.288;28.624;2023-03-23T03:41:52;15.71;;;9.65;;
60336;SDS011;46978;50.288;28.624;2023-03-23T03:42:54;16.06;;;10.21;;
60336;SDS011;46978;50.288;28.624;2023-03-23T03:43:56;17.66;;;10.53;;
60336;SDS011;46978;50.288;28.624;2023-03-23T03:44:58;16.14;;;9.50;;
60336;SDS011;46978;50.288;28.624;2023-03-23T03:45:59;18.83;;;10.82;;
60336;SDS011;46978;50.288;28.624;2023-03-23T03:47:01;16.32;;;10.99;;
60336;SDS011;46978;50.288;28.624;2023-03-23T03:48:03;16.29;;;10.55;;
60336;SDS011;46978;50.288;28.624;2023-03-23T03:49:06;18.35;;;10.14;;
60336;SDS011;46978;50.288;28.624;2023-03-23T03:50:10;18.09;;;10.86;;
60336;SDS011;46978;50.288;28.624;2023-03-23T03:51:11;19.72;;;12.37;;
60336;SDS011;46978;50.288;28.624;2023-03-23T03:52:13;22.54;;;13.14;;
60336;SDS011;46978;50.288;28.624;2023-03-23T03:53:15;23.50;;;13.54;;
60336;SDS011;46978;50.288;28.624;2023-03-23T03:54:17;25.83;;;12.92;;
60336;SDS011;46978;50.288;28.624;2023-03-23T03:55:19;22.80;;;13.37;;
60336;SDS011;46978;50.288;28.624;2023-03-23T03:56:21;24.01;;;13.66;;
60336;SDS011;46978;50.288;28.624;2023-03-23T03:57:24;21.98;;;12.98;;
60336;SDS011;46978;50.288;28.624;2023-03-23T03:58:27;24.58;;;14.08;;
60336;SDS011;46978;50.288;28.624;2023-03-23T03:59:30;25.04;;;13.55;;
60336;SDS011;46978;50.288;28.624;2023-03-23T04:00:32;22.07;;;12.93;;
60336;SDS011;46978;50.288;28.624;2023-03-23T04:01:33;23.96;;;12.80;;
60336;SDS011;46978;50.288;28.624;2023-03-23T04:02:36;21.87;;;12.51;;
60336;SDS011;46978;50.288;28.624;2023-03-23T04:03:37;20.28;;;12.38;;
60336;SDS011;46978;50.288;28.624;2023-03-23T04:04:40;20.28;;;12.31;;
60336;SDS011;46978;50.288;28.624;2023-03-23T04:05:42;20.09;;;12.33;;
60336;SDS011;46978;50.288;28.624;2023-03-23T04:06:44;21.19;;;12.55;;
60336;SDS011;46978;50.288;28.624;2023-03-23T04:07:46;19.24;;;11.91;;
60336;SDS011;46978;50.288;28.624;2023-03-23T04:08:48;18.67;;;11.77;;
60336;SDS011;46978;50.288;28.624;2023-03-23T04:09:50;19.25;;;11.96;;
60336;SDS011;46978;50.288;28.624;2023-03-23T04:10:52;22.01;;;12.27;;
60336;SDS011;46978;50.288;28.624;2023-03-23T04:11:54;20.16;;;12.04;;
60336;SDS011;46978;50.288;28.624;2023-03-23T04:12:55;17.84;;;11.78;;
60336;SDS011;46978;50.288;28.624;2023-03-23T04:13:58;16.63;;;10.99;;
60336;SDS011;46978;50.288;28.624;2023-03-23T04:14:59;19.94;;;11.74;;
60336;SDS011;46978;50.288;28.624;2023-03-23T04:16:01;18.57;;;11.77;;
60336;SDS011;46978;50.288;28.624;2023-03-23T04:17:04;17.33;;;11.35;;
60336;SDS011;46978;50.288;28.624;2023-03-23T04:18:05;19.97;;;11.96;;
60336;SDS011;46978;50.288;28.624;2023-03-23T04:19:07;20.07;;;12.60;;
60336;SDS011;46978;50.288;28.624;2023-03-23T04:20:10;19.09;;;12.16;;
60336;SDS011;46978;50.288;28.624;2023-03-23T04:21:13;18.54;;;12.30;;
60336;SDS011;46978;50.288;28.624;2023-03-23T04:22:15;20.82;;;12.47;;
60336;SDS011;46978;50.288;28.624;2023-03-23T04:23:18;19.99;;;12.21;;
60336;SDS011;46978;50.288;28.624;2023-03-23T04:24:21;21.67;;;12.84;;
60336;SDS011;46978;50.288;28.624;2023-03-23T04:25:23;19.86;;;12.65;;
60336;SDS011;46978;50.288;28.624;2023-03-23T04:26:26;21.85;;;12.54;;
60336;SDS011;46978;50.288;28.624;2023-03-23T04:27:29;21.87;;;13.00;;
60336;SDS011;46978;50.288;28.624;2023-03-23T04:28:30;21.08;;;13.14;;
60336;SDS011;46978;50.288;28.624;2023-03-23T04:29:32;21.77;;;12.51;;
60336;SDS011;46978;50.288;28.624;2023-03-23T04:30:34;21.23;;;12.59;;
60336;SDS011;46978;50.288;28.624;2023-03-23T04:31:35;19.40;;;12.39;;
60336;SDS011;46978;50.288;28.624;2023-03-23T04:32:37;18.38;;;11.92;;
60336;SDS011;46978;50.288;28.624;2023-03-23T04:33:40;19.27;;;12.25;;
60336;SDS011;46978;50.288;28.624;2023-03-23T04:34:43;20.43;;;12.76;;
60336;SDS011;46978;50.288;28.624;2023-03-23T04:35:45;21.33;;;12.93;;
60336;SDS011;46978;50.288;28.624;2023-03-23T04:36:47;19.07;;;11.47;;
60336;SDS011;46978;50.288;28.624;2023-03-23T04:37:49;19.11;;;12.49;;
60336;SDS011;46978;50.288;28.624;2023-03-23T04:38:51;20.61;;;12.69;;
60336;SDS011;46978;50.288;28.624;2023-03-23T04:39:53;20.56;;;12.85;;
60336;SDS011;46978;50.288;28.624;2023-03-23T04:40:56;20.87;;;12.63;;
60336;SDS011;46978;50.288;28.624;2023-03-23T04:41:59;20.47;;;12.81;;
60336;SDS011;46978;50.288;28.624;2023-03-23T04:43:00;21.33;;;12.09;;
60336;SDS011;46978;50.288;28.624;2023-03-23T04:44:02;22.52;;;12.86;;
60336;SDS011;46978;50.288;28.624;2023-03-23T04:45:05;21.65;;;13.51;;
60336;SDS011;46978;50.288;28.624;2023-03-23T04:46:09;23.72;;;13.71;;
60336;SDS011;46978;50.288;28.624;2023-03-23T04:47:12;23.15;;;13.39;;
60336;SDS011;46978;50.288;28.624;2023-03-23T04:48:14;22.32;;;13.54;;
60336;SDS011;46978;50.288;28.624;2023-03-23T04:49:15;21.82;;;13.74;;
60336;SDS011;46978;50.288;28.624;2023-03-23T04:50:17;21.85;;;13.42;;
60336;SDS011;46978;50.288;28.624;2023-03-23T04:51:22;21.43;;;13.95;;
60336;SDS011;46978;50.288;28.624;2023-03-23T04:52:27;21.91;;;13.46;;
60336;SDS011;46978;50.288;28.624;2023-03-23T04:53:30;20.84;;;13.82;;
60336;SDS011;46978;50.288;28.624;2023-03-23T04:54:32;23.84;;;14.43;;
60336;SDS011;46978;50.288;28.624;2023-03-23T04:55:35;23.76;;;14.21;;
60336;SDS011;46978;50.288;28.624;2023-03-23T04:56:37;22.51;;;14.06;;
60336;SDS011;46978;50.288;28.624;2023-03-23T04:57:39;21.91;;;14.05;;
60336;SDS011;46978;50.288;28.624;2023-03-23T04:59:02;22.86;;;14.19;;
60336;SDS011;46978;50.288;28.624;2023-03-23T05:00:05;23.49;;;14.11;;
60336;SDS011;46978;50.288;28.624;2023-03-23T05:01:07;23.20;;;14.79;;
60336;SDS011;46978;50.288;28.624;2023-03-23T05:02:13;21.56;;;13.93;;
60336;SDS011;46978;50.288;28.624;2023-03-23T05:03:12;24.63;;;14.77;;
60336;SDS011;46978;50.288;28.624;2023-03-23T05:04:14;22.01;;;13.76;;
60336;SDS011;46978;50.288;28.624;2023-03-23T05:05:16;22.35;;;14.05;;
60336;SDS011;46978;50.288;28.624;2023-03-23T05:06:18;21.66;;;13.84;;
60336;SDS011;46978;50.288;28.624;2023-03-23T05:07:20;21.28;;;13.66;;
60336;SDS011;46978;50.288;28.624;2023-03-23T05:08:22;22.06;;;13.70;;
60336;SDS011;46978;50.288;28.624;2023-03-23T05:09:25;22.38;;;14.94;;
60336;SDS011;46978;50.288;28.624;2023-03-23T05:10:26;21.41;;;13.81;;
60336;SDS011;46978;50.288;28.624;2023-03-23T05:11:28;20.86;;;13.59;;
60336;SDS011;46978;50.288;28.624;2023-03-23T05:12:30;20.93;;;14.28;;
60336;SDS011;46978;50.288;28.624;2023-03-23T05:13:32;22.70;;;14.49;;
60336;SDS011;46978;50.288;28.624;2023-03-23T05:14:34;21.57;;;13.47;;
60336;SDS011;46978;50.288;28.624;2023-03-23T05:15:36;23.32;;;13.69;;
60336;SDS011;46978;50.288;28.624;2023-03-23T05:16:38;23.23;;;13.99;;
60336;SDS011;46978;50.288;28.624;2023-03-23T05:17:39;24.11;;;14.08;;
60336;SDS011;46978;50.288;28.624;2023-03-23T05:18:41;21.86;;;14.03;;
60336;SDS011;46978;50.288;28.624;2023-03-23T05:19:43;20.41;;;12.71;;
60336;SDS011;46978;50.288;28.624;2023-03-23T05:20:45;22.60;;;14.06;;
60336;SDS011;46978;50.288;28.624;2023-03-23T05:21:48;21.31;;;13.62;;
60336;SDS011;46978;50.288;28.624;2023-03-23T05:22:51;20.54;;;13.81;;
60336;SDS011;46978;50.288;28.624;2023-03-23T05:23:53;19.56;;;12.99;;
60336;SDS011;46978;50.288;28.624;2023-03-23T05:24:55;21.36;;;13.35;;
60336;SDS011;46978;50.288;28.624;2023-03-23T05:25:57;21.56;;;13.79;;
60336;SDS011;46978;50.288;28.624;2023-03-23T05:27:01;22.57;;;13.34;;
60336;SDS011;46978;50.288;28.624;2023-03-23T05:28:03;23.23;;;14.24;;
60336;SDS011;46978;50.288;28.624;2023-03-23T05:29:04;20.92;;;13.76;;
60336;SDS011;46978;50.288;28.624;2023-03-23T05:30:07;20.58;;;13.65;;
60336;SDS011;46978;50.288;28.624;2023-03-23T05:31:09;29.26;;;14.18;;
60336;SDS011;46978;50.288;28.624;2023-03-23T05:32:11;20.36;;;13.87;;
60336;SDS011;46978;50.288;28.624;2023-03-23T05:33:13;21.70;;;14.35;;
60336;SDS011;46978;50.288;28.624;2023-03-23T05:34:14;22.29;;;13.48;;
60336;SDS011;46978;50.288;28.624;2023-03-23T05:35:18;23.66;;;14.93;;
60336;SDS011;46978;50.288;28.624;2023-03-23T05:36:21;21.63;;;13.74;;
60336;SDS011;46978;50.288;28.624;2023-03-23T05:37:23;22.22;;;13.99;;
60336;SDS011;46978;50.288;28.624;2023-03-23T05:38:25;25.09;;;13.91;;
60336;SDS011;46978;50.288;28.624;2023-03-23T05:39:27;22.27;;;13.40;;
60336;SDS011;46978;50.288;28.624;2023-03-23T05:40:29;22.13;;;13.75;;
60336;SDS011;46978;50.288;28.624;2023-03-23T05:41:31;23.23;;;13.76;;
60336;SDS011;46978;50.288;28.624;2023-03-23T05:42:33;24.72;;;15.64;;
60336;SDS011;46978;50.288;28.624;2023-03-23T05:43:35;24.77;;;14.22;;
60336;SDS011;46978;50.288;28.624;2023-03-23T05:44:37;25.33;;;14.97;;
60336;SDS011;46978;50.288;28.624;2023-03-23T05:45:39;27.07;;;14.72;;
60336;SDS011;46978;50.288;28.624;2023-03-23T05:46:40;25.35;;;14.74;;
60336;SDS011;46978;50.288;28.624;2023-03-23T05:47:42;24.75;;;15.16;;
60336;SDS011;46978;50.288;28.624;2023-03-23T05:48:44;22.06;;;14.41;;
60336;SDS011;46978;50.288;28.624;2023-03-23T05:49:45;22.98;;;14.71;;
60336;SDS011;46978;50.288;28.624;2023-03-23T05:50:47;22.92;;;14.38;;
60336;SDS011;46978;50.288;28.624;2023-03-23T05:53:10;26.54;;;15.28;;
60336;SDS011;46978;50.288;28.624;2023-03-23T05:54:12;24.96;;;15.71;;
60336;SDS011;46978;50.288;28.624;2023-03-23T05:55:15;22.90;;;14.51;;
60336;SDS011;46978;50.288;28.624;2023-03-23T05:56:17;22.35;;;14.32;;
60336;SDS011;46978;50.288;28.624;2023-03-23T05:57:19;25.22;;;14.55;;
60336;SDS011;46978;50.288;28.624;2023-03-23T05:58:22;22.37;;;14.49;;
60336;SDS011;46978;50.288;28.624;2023-03-23T05:59:23;23.94;;;14.42;;
60336;SDS011;46978;50.288;28.624;2023-03-23T06:00:25;25.07;;;14.39;;
60336;SDS011;46978;50.288;28.624;2023-03-23T06:01:27;22.28;;;13.89;;
60336;SDS011;46978;50.288;28.624;2023-03-23T06:02:29;26.87;;;14.36;;
60336;SDS011;46978;50.288;28.624;2023-03-23T06:03:31;25.46;;;14.05;;
60336;SDS011;46978;50.288;28.624;2023-03-23T06:04:32;21.14;;;14.16;;
60336;SDS011;46978;50.288;28.624;2023-03-23T06:05:34;24.60;;;15.03;;
60336;SDS011;46978;50.288;28.624;2023-03-23T06:06:36;21.28;;;14.97;;
60336;SDS011;46978;50.288;28.624;2023-03-23T06:07:38;20.43;;;13.55;;
60336;SDS011;46978;50.288;28.624;2023-03-23T06:08:39;21.81;;;14.54;;
60336;SDS011;46978;50.288;28.624;2023-03-23T06:09:41;26.04;;;15.09;;
60336;SDS011;46978;50.288;28.624;2023-03-23T06:10:43;23.03;;;14.59;;
60336;SDS011;46978;50.288;28.624;2023-03-23T06:11:46;26.11;;;15.25;;
60336;SDS011;46978;50.288;28.624;2023-03-23T06:12:49;22.97;;;15.01;;
60336;SDS011;46978;50.288;28.624;2023-03-23T06:13:51;23.20;;;14.77;;
60336;SDS011;46978;50.288;28.624;2023-03-23T06:14:53;23.40;;;15.07;;
60336;SDS011;46978;50.288;28.624;2023-03-23T06:15:55;23.49;;;14.61;;
60336;SDS011;46978;50.288;28.624;2023-03-23T06:16:58;25.72;;;14.97;;
60336;SDS011;46978;50.288;28.624;2023-03-23T06:18:00;24.26;;;14.97;;
60336;SDS011;46978;50.288;28.624;2023-03-23T06:19:03;25.32;;;14.96;;
60336;SDS011;46978;50.288;28.624;2023-03-23T06:20:06;23.13;;;14.68;;
60336;SDS011;46978;50.288;28.624;2023-03-23T06:21:09;22.79;;;15.05;;
60336;SDS011;46978;50.288;28.624;2023-03-23T06:22:11;25.66;;;15.15;;
60336;SDS011;46978;50.288;28.624;2023-03-23T06:23:14;23.32;;;15.31;;
60336;SDS011;46978;50.288;28.624;2023-03-23T06:24:15;25.24;;;15.56;;
60336;SDS011;46978;50.288;28.624;2023-03-23T06:25:17;23.19;;;14.98;;
60336;SDS011;46978;50.288;28.624;2023-03-23T06:26:19;24.67;;;15.49;;
60336;SDS011;46978;50.288;28.624;2023-03-23T06:27:23;24.24;;;15.79;;
60336;SDS011;46978;50.288;28.624;2023-03-23T06:28:25;27.69;;;16.82;;
60336;SDS011;46978;50.288;28.624;2023-03-23T06:29:29;26.72;;;17.67;;
60336;SDS011;46978;50.288;28.624;2023-03-23T06:30:31;27.69;;;16.30;;
60336;SDS011;46978;50.288;28.624;2023-03-23T06:31:33;24.46;;;15.49;;